Voyager Of The Seas — C6SE5 — position and weather

sailwx.info

Track history (hours):
 
Tides and Currents Weather Stations Pressure Air Temp Water Temp Dewpoint Dewpoint Depression Visibility Wind Speed Wind Dir Waves Ship Positions

Voyager Of The Seas

Operator: Royal Caribbean Cruises Ltd

Last reported at 2017-Apr-21 10:48 UTC. Time now 2017-Apr-25 12:32 UTC.
Position S 26°38' E 153°16'.

Type: Passenger vessel. MMSI: 311317000.

Date/timePositionNaut miles runAvg speedWind from/ knotsBaromVisibWave heightAir tempDewpointWater temp
2017-Apr-21 10:48S 26°38' E 153°16'413.4
2017-Apr-21 10:30S 26°41' E 153°13'5 9.6
2017-Apr-21 10:00S 26°45' E 153°11'612.7
2017-Apr-21 09:30S 26°51' E 153°09'714.7
2017-Apr-21 09:00S 26°58' E 153°13'714.8
2017-Apr-21 08:30S 27°04' E 153°18'815.9
2017-Apr-21 08:00S 27°11' E 153°21'816.1
2017-Apr-21 07:30S 27°17' E 153°14'713.1
2017-Apr-21 07:00S 27°22' E 153°10'1 1.0
2017-Apr-21 06:30S 27°23' E 153°10'0 0.0
2017-Apr-21 06:00S 27°23' E 153°10'0 0.0
2017-Apr-21 05:30S 27°23' E 153°10'0 0.0
2017-Apr-21 05:00S 27°23' E 153°10'0 0.0
2017-Apr-21 04:30S 27°23' E 153°10'0 0.0
2017-Apr-21 04:00S 27°23' E 153°10'0 0.0
2017-Apr-21 03:30S 27°23' E 153°10'0 0.0
2017-Apr-21 03:00S 27°23' E 153°10'0 0.0
2017-Apr-21 02:30S 27°23' E 153°10'0 0.0
2017-Apr-21 02:00S 27°23' E 153°10'0 0.0
2017-Apr-21 01:30S 27°23' E 153°10'0 0.0
2017-Apr-21 01:00S 27°23' E 153°10'0 0.0
2017-Apr-21 00:30S 27°23' E 153°10'0 0.0
2017-Apr-21 00:00S 27°23' E 153°10'0 0.0
2017-Apr-20 23:30S 27°23' E 153°10'0 0.0
2017-Apr-20 23:00S 27°23' E 153°10'0 0.0
2017-Apr-20 22:30S 27°23' E 153°10'0 0.0
2017-Apr-20 22:00S 27°23' E 153°10'0 0.3
2017-Apr-20 21:31S 27°23' E 153°10'2 3.4
2017-Apr-20 21:00S 27°21' E 153°11'713.8
2017-Apr-20 20:30S 27°16' E 153°16'815.9
2017-Apr-20 20:00S 27°10' E 153°21'815.5
2017-Apr-20 19:30S 27°03' E 153°17'815.3
2017-Apr-20 19:00S 26°56' E 153°12'714.5
2017-Apr-20 18:31S 26°50' E 153°09'714.0
2017-Apr-20 18:01S 26°43' E 153°11'5 9.6
2017-Apr-20 17:31S 26°41' E 153°15'917.8
2017-Apr-20 17:01S 26°46' E 153°23'714.4
2017-Apr-20 16:31S 26°51' E 153°29'714.2
2017-Apr-20 16:00S 26°55' E 153°36'714.0
2017-Apr-20 15:31S 26°59' E 153°42'713.6
2017-Apr-20 15:00S 27°04' E 153°47'1413.7
2017-Apr-20 13:59S 27°18' E 153°51'31214.6
2017-Apr-19 16:42S 32°24' E 152°44'317.7
2017-Apr-19 16:31S 32°27' E 152°42'917.1
2017-Apr-19 16:00S 32°34' E 152°37'816.6
2017-Apr-19 15:31S 32°40' E 152°30'816.7
2017-Apr-19 15:01S 32°46' E 152°22'816.5
2017-Apr-19 14:31S 32°52' E 152°15'1717.0
2017-Apr-19 13:30S 33°04' E 152°02'816.5
2017-Apr-19 13:01S 33°11' E 151°56'916.1
2017-Apr-19 12:26S 33°18' E 151°48'815.6
2017-Apr-19 11:55S 33°24' E 151°42'715.5
2017-Apr-19 11:30S 33°29' E 151°37'815.9
2017-Apr-19 11:00S 33°35' E 151°32'816.2
2017-Apr-19 10:30S 33°42' E 151°27'815.5
2017-Apr-19 10:00S 33°49' E 151°22'4 0.3
2017-Apr-18 18:53S 33°50' E 151°27'6612.7
2017-Apr-18 13:39S 33°10' E 152°30'213.1
2017-Apr-18 13:30S 33°08' E 152°30'  
Track history (hours):
 
Tides and Currents Weather Stations Pressure Air Temp Water Temp Dewpoint Dewpoint Depression Visibility Wind Speed Wind Dir Waves Ship Positions

Voyager Of The Seas

Operator: Royal Caribbean Cruises Ltd

Last reported at 2017-Apr-21 10:48 UTC. Time now 2017-Apr-25 12:32 UTC.
Position S 26°38' E 153°16'.

Type: Passenger vessel. MMSI: 311317000.

Date/timePositionNaut miles runAvg speedWind from/ knotsBaromVisibWave heightAir tempDewpointWater temp
2017-Apr-21 10:48S 26°38' E 153°16'413.4
2017-Apr-21 10:30S 26°41' E 153°13'5 9.6
2017-Apr-21 10:00S 26°45' E 153°11'612.7
2017-Apr-21 09:30S 26°51' E 153°09'714.7
2017-Apr-21 09:00S 26°58' E 153°13'714.8
2017-Apr-21 08:30S 27°04' E 153°18'815.9
2017-Apr-21 08:00S 27°11' E 153°21'816.1
2017-Apr-21 07:30S 27°17' E 153°14'713.1
2017-Apr-21 07:00S 27°22' E 153°10'1 1.0
2017-Apr-21 06:30S 27°23' E 153°10'0 0.0
2017-Apr-21 06:00S 27°23' E 153°10'0 0.0
2017-Apr-21 05:30S 27°23' E 153°10'0 0.0
2017-Apr-21 05:00S 27°23' E 153°10'0 0.0
2017-Apr-21 04:30S 27°23' E 153°10'0 0.0
2017-Apr-21 04:00S 27°23' E 153°10'0 0.0
2017-Apr-21 03:30S 27°23' E 153°10'0 0.0
2017-Apr-21 03:00S 27°23' E 153°10'0 0.0
2017-Apr-21 02:30S 27°23' E 153°10'0 0.0
2017-Apr-21 02:00S 27°23' E 153°10'0 0.0
2017-Apr-21 01:30S 27°23' E 153°10'0 0.0
2017-Apr-21 01:00S 27°23' E 153°10'0 0.0
2017-Apr-21 00:30S 27°23' E 153°10'0 0.0
2017-Apr-21 00:00S 27°23' E 153°10'0 0.0
2017-Apr-20 23:30S 27°23' E 153°10'0 0.0
2017-Apr-20 23:00S 27°23' E 153°10'0 0.0
2017-Apr-20 22:30S 27°23' E 153°10'0 0.0
2017-Apr-20 22:00S 27°23' E 153°10'0 0.3
2017-Apr-20 21:31S 27°23' E 153°10'2 3.4
2017-Apr-20 21:00S 27°21' E 153°11'713.8
2017-Apr-20 20:30S 27°16' E 153°16'815.9
2017-Apr-20 20:00S 27°10' E 153°21'815.5
2017-Apr-20 19:30S 27°03' E 153°17'815.3
2017-Apr-20 19:00S 26°56' E 153°12'714.5
2017-Apr-20 18:31S 26°50' E 153°09'714.0
2017-Apr-20 18:01S 26°43' E 153°11'5 9.6
2017-Apr-20 17:31S 26°41' E 153°15'917.8
2017-Apr-20 17:01S 26°46' E 153°23'714.4
2017-Apr-20 16:31S 26°51' E 153°29'714.2
2017-Apr-20 16:00S 26°55' E 153°36'714.0
2017-Apr-20 15:31S 26°59' E 153°42'713.6
2017-Apr-20 15:00S 27°04' E 153°47'1413.7
2017-Apr-20 13:59S 27°18' E 153°51'31214.6
2017-Apr-19 16:42S 32°24' E 152°44'317.7
2017-Apr-19 16:31S 32°27' E 152°42'917.1
2017-Apr-19 16:00S 32°34' E 152°37'816.6
2017-Apr-19 15:31S 32°40' E 152°30'816.7
2017-Apr-19 15:01S 32°46' E 152°22'816.5
2017-Apr-19 14:31S 32°52' E 152°15'1717.0
2017-Apr-19 13:30S 33°04' E 152°02'816.5
2017-Apr-19 13:01S 33°11' E 151°56'916.1
2017-Apr-19 12:26S 33°18' E 151°48'815.6
2017-Apr-19 11:55S 33°24' E 151°42'715.5
2017-Apr-19 11:30S 33°29' E 151°37'815.9
2017-Apr-19 11:00S 33°35' E 151°32'816.2
2017-Apr-19 10:30S 33°42' E 151°27'815.5
2017-Apr-19 10:00S 33°49' E 151°22'4 0.3
2017-Apr-18 18:53S 33°50' E 151°27'6612.7
2017-Apr-18 13:39S 33°10' E 152°30'213.1
2017-Apr-18 13:30S 33°08' E 152°30'  

Dump ship's entire track history